createdAt,value
2018-06-17T00:01:08.842Z,80.20
2018-06-17T00:06:05.555Z,80.20
2018-06-17T00:08:34.071Z,80.10
2018-06-17T00:11:02.567Z,80.10
2018-06-17T00:13:31.075Z,80.60
2018-06-17T00:15:59.562Z,80.20
2018-06-17T00:18:28.085Z,80.80
2018-06-17T00:20:56.580Z,81.10
2018-06-17T00:23:25.110Z,81.20
2018-06-17T00:25:53.550Z,81.40
2018-06-17T00:28:22.043Z,82.10
2018-06-17T00:30:50.508Z,82.20
2018-06-17T00:33:19.042Z,82.10
2018-06-17T00:35:47.566Z,82.00
2018-06-17T00:38:17.058Z,82.00
2018-06-17T00:40:45.571Z,81.50
2018-06-17T00:43:14.052Z,81.10
2018-06-17T00:45:42.571Z,81.60
2018-06-17T00:48:11.027Z,81.40
2018-06-17T00:50:39.514Z,81.60
2018-06-17T00:53:09.690Z,82.10
2018-06-17T00:55:38.210Z,82.20
2018-06-17T00:58:06.802Z,82.70
2018-06-17T01:00:35.302Z,83.50
2018-06-17T01:03:03.820Z,83.70
2018-06-17T01:05:32.336Z,84.60
2018-06-17T01:08:00.803Z,84.60
2018-06-17T01:10:29.303Z,84.40
2018-06-17T01:12:57.766Z,83.90
2018-06-17T01:15:26.303Z,83.80
2018-06-17T01:17:54.802Z,83.80
2018-06-17T01:22:51.538Z,83.50
2018-06-17T01:25:20.055Z,83.90
2018-06-17T01:27:48.607Z,84.70
2018-06-17T01:30:17.158Z,84.80
2018-06-17T01:32:45.674Z,84.50
2018-06-17T01:35:14.229Z,84.80
2018-06-17T01:37:43.416Z,84.80
2018-06-17T01:40:12.870Z,84.70
2018-06-17T01:42:44.546Z,84.90
2018-06-17T01:45:13.014Z,84.90
2018-06-17T01:47:41.514Z,85.00
2018-06-17T01:50:11.436Z,85.00
2018-06-17T01:52:39.998Z,85.00
2018-06-17T01:55:08.519Z,85.10
2018-06-17T01:57:37.042Z,85.70
2018-06-17T02:00:05.638Z,86.20
2018-06-17T02:02:34.224Z,86.30
2018-06-17T02:07:41.520Z,86.50
2018-06-17T02:10:15.280Z,86.80
2018-06-17T02:12:43.875Z,87.40
2018-06-17T02:15:12.425Z,87.40
2018-06-17T02:17:41.031Z,87.90
2018-06-17T02:20:12.762Z,87.80
2018-06-17T02:22:41.282Z,87.60
2018-06-17T02:25:09.746Z,88.10
2018-06-17T02:27:38.322Z,88.20
2018-06-17T02:30:06.831Z,88.50
2018-06-17T02:32:35.307Z,88.70
2018-06-17T02:35:03.870Z,89.20
2018-06-17T02:37:32.778Z,88.90
2018-06-17T02:40:01.287Z,89.20
2018-06-17T02:42:29.782Z,89.50
2018-06-17T02:45:03.529Z,90.00
2018-06-17T02:47:37.347Z,90.10
2018-06-17T02:50:11.217Z,90.00
2018-06-17T02:52:45.107Z,90.00
2018-06-17T02:55:13.629Z,90.10
2018-06-17T02:57:42.151Z,90.10
2018-06-17T03:00:10.681Z,90.30
2018-06-17T03:02:39.229Z,90.20
2018-06-17T03:05:07.807Z,90.30
2018-06-17T03:07:36.330Z,90.30
2018-06-17T03:10:04.961Z,90.60
2018-06-17T03:12:33.455Z,90.60
2018-06-17T03:15:02.015Z,90.70
2018-06-17T03:17:30.531Z,90.80
2018-06-17T03:19:59.087Z,90.80
2018-06-17T03:22:27.651Z,90.80
2018-06-17T03:25:01.959Z,90.90
2018-06-17T03:27:35.765Z,91.00
2018-06-17T03:30:13.213Z,91.00
2018-06-17T03:32:46.988Z,91.00
2018-06-17T03:35:20.910Z,90.80
2018-06-17T03:37:49.432Z,90.80
2018-06-17T03:42:46.163Z,90.90
2018-06-17T03:45:14.668Z,91.00
2018-06-17T03:47:43.118Z,91.10
2018-06-17T03:50:12.715Z,91.20
2018-06-17T03:52:41.190Z,91.30
2018-06-17T03:55:09.683Z,91.50
2018-06-17T03:57:38.131Z,91.60
2018-06-17T04:00:06.624Z,91.70
2018-06-17T04:02:35.125Z,91.90
2018-06-17T04:05:08.836Z,92.00
2018-06-17T04:07:37.426Z,92.00
2018-06-17T04:10:06.150Z,92.20
2018-06-17T04:12:34.984Z,92.30
2018-06-17T04:15:03.532Z,92.20
2018-06-17T04:17:32.020Z,92.40
2018-06-17T04:20:00.501Z,92.40
2018-06-17T04:22:29.005Z,92.40
2018-06-17T04:24:57.512Z,92.40
2018-06-17T04:27:26.038Z,92.60
2018-06-17T04:29:54.511Z,92.50
2018-06-17T04:32:23.945Z,92.50
2018-06-17T04:34:52.448Z,92.60
2018-06-17T04:37:20.950Z,92.50
2018-06-17T04:39:49.386Z,92.50
2018-06-17T04:42:17.916Z,92.40
2018-06-17T04:44:46.800Z,92.10
2018-06-17T04:47:15.331Z,92.10
2018-06-17T04:49:43.816Z,92.20
2018-06-17T04:52:12.296Z,92.20
2018-06-17T04:54:40.803Z,92.40
2018-06-17T04:57:09.262Z,92.60
2018-06-17T04:59:37.779Z,92.60
2018-06-17T05:02:06.406Z,92.30
2018-06-17T05:04:34.947Z,92.30
2018-06-17T05:07:03.990Z,92.40
2018-06-17T05:09:32.554Z,92.50
2018-06-17T05:12:01.033Z,92.60
2018-06-17T05:14:29.544Z,92.70
2018-06-17T05:16:58.034Z,92.60
2018-06-17T05:19:26.531Z,92.50
2018-06-17T05:21:54.998Z,92.30
2018-06-17T05:24:23.516Z,92.30
2018-06-17T05:26:52.022Z,91.80
2018-06-17T05:29:20.526Z,90.70
2018-06-17T05:31:48.989Z,90.50
2018-06-17T05:34:17.500Z,89.80
2018-06-17T05:36:45.994Z,89.80
2018-06-17T05:39:14.543Z,87.70
2018-06-17T05:41:43.039Z,87.50
2018-06-17T05:44:11.556Z,86.80
2018-06-17T05:46:40.047Z,83.90
2018-06-17T05:49:08.545Z,81.20
2018-06-17T05:51:37.054Z,81.40
2018-06-17T05:54:05.563Z,80.70
2018-06-17T05:56:34.054Z,78.50
2018-06-17T05:59:02.539Z,79.40
2018-06-17T06:01:31.082Z,78.70
2018-06-17T06:03:59.624Z,77.10
2018-06-17T06:06:28.082Z,76.80
2018-06-17T06:08:56.552Z,74.70
2018-06-17T06:11:25.072Z,73.80
2018-06-17T06:13:53.563Z,73.50
2018-06-17T06:16:23.194Z,72.50
2018-06-17T06:18:51.647Z,70.90
2018-06-17T06:21:20.147Z,71.70
2018-06-17T06:23:48.607Z,70.00
2018-06-17T06:26:17.122Z,70.20
2018-06-17T06:28:45.956Z,68.10
2018-06-17T06:31:14.818Z,68.10
2018-06-17T06:33:43.386Z,66.00
2018-06-17T06:36:11.917Z,65.80
2018-06-17T06:38:40.474Z,66.60
2018-06-17T06:41:08.934Z,65.60
2018-06-17T06:43:37.467Z,65.10
2018-06-17T06:46:06.133Z,64.80
2018-06-17T06:48:34.794Z,64.10
2018-06-17T06:53:31.593Z,61.80
2018-06-17T06:56:00.083Z,61.30
2018-06-17T06:58:28.607Z,61.50
2018-06-17T07:00:57.103Z,61.80
2018-06-17T07:03:36.692Z,61.90
2018-06-17T07:06:16.770Z,61.10
2018-06-17T07:08:56.471Z,61.10
2018-06-17T07:11:24.979Z,59.70
2018-06-17T07:13:53.523Z,59.40
2018-06-17T07:16:33.090Z,59.30
2018-06-17T07:19:01.629Z,59.30
2018-06-17T07:21:30.125Z,59.30
2018-06-17T07:23:58.633Z,58.20
2018-06-17T07:26:40.521Z,58.30
2018-06-17T07:29:20.867Z,58.30
2018-06-17T07:31:49.367Z,58.10
2018-06-17T07:34:18.152Z,58.00
2018-06-17T07:36:46.703Z,58.50
2018-06-17T07:40:58.129Z,58.50
2018-06-17T07:43:26.667Z,58.30
2018-06-17T07:45:55.191Z,57.20
2018-06-17T07:49:45.000Z,56.40
2018-06-17T07:52:25.724Z,57.60
2018-06-17T07:54:54.386Z,56.20
2018-06-17T07:57:24.100Z,56.40
2018-06-17T07:59:52.644Z,57.00
2018-06-17T08:02:21.146Z,55.90
2018-06-17T08:04:49.723Z,56.30
2018-06-17T08:07:18.259Z,55.50
2018-06-17T08:09:48.410Z,55.70
2018-06-17T08:12:16.954Z,56.30
2018-06-17T08:14:45.534Z,55.40
2018-06-17T08:17:14.031Z,53.70
2018-06-17T08:19:42.691Z,54.40
2018-06-17T08:22:11.197Z,53.40
2018-06-17T08:24:39.863Z,53.60
2018-06-17T08:27:08.430Z,54.60
2018-06-17T08:29:37.438Z,54.60
2018-06-17T08:32:06.046Z,54.60
2018-06-17T08:34:35.087Z,53.90
2018-06-17T08:37:03.642Z,53.20
2018-06-17T08:39:32.122Z,53.90
2018-06-17T08:42:00.647Z,51.50
2018-06-17T08:44:29.162Z,51.90
2018-06-17T08:46:57.747Z,52.50
2018-06-17T08:49:29.609Z,52.80
2018-06-17T08:51:58.183Z,52.00
2018-06-17T08:54:26.672Z,50.80
2018-06-17T08:56:55.162Z,50.60
2018-06-17T08:59:23.706Z,52.60
2018-06-17T09:04:20.434Z,49.90
2018-06-17T09:06:48.978Z,51.00
2018-06-17T09:09:17.480Z,50.80
2018-06-17T09:11:46.027Z,50.50
2018-06-17T09:14:14.544Z,51.00
2018-06-17T09:16:43.054Z,51.60
2018-06-17T09:19:12.620Z,50.50
2018-06-17T09:21:41.167Z,49.90
2018-06-17T09:24:09.670Z,49.40
2018-06-17T09:26:38.139Z,50.40
2018-06-17T09:29:06.674Z,48.40
2018-06-17T09:31:35.571Z,45.90
2018-06-17T09:34:04.095Z,46.80
2018-06-17T09:36:32.639Z,46.90
2018-06-17T09:39:01.137Z,48.40
2018-06-17T09:41:29.710Z,47.80
2018-06-17T09:43:58.245Z,47.70
2018-06-17T09:46:26.761Z,47.80
2018-06-17T09:48:56.486Z,46.50
2018-06-17T09:51:25.052Z,47.00
2018-06-17T09:53:53.582Z,45.40
2018-06-17T09:56:22.075Z,44.40
2018-06-17T09:58:50.582Z,45.70
2018-06-17T10:01:19.131Z,45.30
2018-06-17T10:03:47.702Z,44.00
2018-06-17T10:06:16.254Z,45.10
2018-06-17T10:08:44.752Z,44.00
2018-06-17T10:11:13.304Z,43.10
2018-06-17T10:13:43.933Z,42.90
2018-06-17T10:16:13.168Z,43.10
2018-06-17T10:18:41.787Z,43.70
2018-06-17T10:21:10.714Z,44.10
2018-06-17T10:23:39.204Z,42.30
2018-06-17T10:26:07.789Z,44.30
2018-06-17T10:28:36.523Z,43.80
2018-06-17T10:31:06.320Z,43.60
2018-06-17T10:33:35.861Z,44.60
2018-06-17T10:36:04.419Z,44.10
2018-06-17T10:38:32.946Z,43.60
2018-06-17T10:41:01.917Z,44.60
2018-06-17T10:43:31.676Z,44.10
2018-06-17T10:46:00.203Z,43.60
2018-06-17T10:48:28.742Z,43.40
2018-06-17T10:50:57.226Z,44.90
2018-06-17T10:53:25.770Z,43.70
2018-06-17T10:55:54.319Z,44.00
2018-06-17T10:58:22.739Z,42.70
2018-06-17T11:00:51.310Z,44.40
2018-06-17T11:03:19.853Z,43.60
2018-06-17T11:05:48.376Z,43.80
2018-06-17T11:08:16.894Z,43.20
2018-06-17T11:10:45.798Z,42.70
2018-06-17T11:13:14.345Z,42.30
2018-06-17T11:15:42.827Z,41.30
2018-06-17T11:18:11.446Z,42.70
2018-06-17T11:20:39.935Z,41.80
2018-06-17T11:23:08.455Z,41.60
2018-06-17T11:25:36.938Z,42.30
2018-06-17T11:28:05.510Z,40.80
2018-06-17T11:30:34.034Z,41.30
2018-06-17T11:33:02.563Z,40.50
2018-06-17T11:35:31.046Z,41.40
2018-06-17T11:37:59.566Z,42.00
2018-06-17T11:40:28.019Z,41.30
2018-06-17T11:42:56.514Z,41.10
2018-06-17T11:45:24.990Z,41.10
2018-06-17T11:47:53.494Z,41.70
2018-06-17T11:50:21.993Z,43.40
2018-06-17T11:52:50.487Z,41.90
2018-06-17T11:55:18.990Z,41.60
2018-06-17T11:57:47.483Z,42.10
2018-06-17T12:00:15.986Z,40.40
2018-06-17T12:02:44.491Z,41.50
2018-06-17T12:05:13.019Z,41.10
2018-06-17T12:07:41.523Z,40.90
2018-06-17T12:10:10.040Z,41.60
2018-06-17T12:12:40.254Z,42.00
2018-06-17T12:15:08.882Z,42.20
2018-06-17T12:17:37.419Z,42.10
2018-06-17T12:20:05.976Z,43.70
2018-06-17T12:22:34.618Z,42.90
2018-06-17T12:25:03.147Z,43.30
2018-06-17T12:27:31.642Z,44.20
2018-06-17T12:30:00.167Z,43.90
2018-06-17T12:32:33.010Z,44.00
2018-06-17T12:35:03.143Z,44.10
2018-06-17T12:37:31.666Z,44.20
2018-06-17T12:40:00.218Z,43.20
2018-06-17T12:42:28.719Z,42.10
2018-06-17T12:44:57.230Z,41.40
2018-06-17T12:47:25.726Z,41.90
2018-06-17T12:49:54.398Z,41.10
2018-06-17T12:52:23.330Z,41.20
2018-06-17T12:54:52.111Z,42.40
2018-06-17T12:57:20.651Z,43.20
2018-06-17T12:59:49.172Z,44.40
2018-06-17T13:02:17.702Z,43.80
2018-06-17T13:04:46.198Z,44.10
2018-06-17T13:07:14.815Z,43.70
2018-06-17T13:09:43.314Z,44.50
2018-06-17T13:12:11.815Z,44.60
2018-06-17T13:14:40.382Z,44.80
2018-06-17T13:17:09.547Z,44.80
2018-06-17T13:19:38.031Z,44.00
2018-06-17T13:22:07.621Z,43.90
2018-06-17T13:24:36.110Z,46.20
2018-06-17T13:27:04.695Z,44.30
2018-06-17T13:29:33.206Z,43.20
2018-06-17T13:32:01.704Z,43.00
2018-06-17T13:34:30.414Z,43.80
2018-06-17T13:36:59.158Z,45.00
2018-06-17T13:39:27.760Z,46.30
2018-06-17T13:41:56.349Z,46.30
2018-06-17T13:44:24.882Z,46.60
2018-06-17T13:46:53.466Z,48.00
2018-06-17T13:49:21.994Z,47.40
2018-06-17T13:51:50.610Z,47.40
2018-06-17T13:54:19.111Z,48.00
2018-06-17T13:56:50.100Z,47.60
2018-06-17T13:59:18.630Z,47.90
2018-06-17T14:01:47.182Z,47.20
2018-06-17T14:04:15.699Z,48.10
2018-06-17T14:06:44.274Z,47.90
2018-06-17T14:09:12.867Z,47.80
2018-06-17T14:11:41.276Z,47.60
2018-06-17T14:14:09.802Z,47.50
2018-06-17T14:16:38.306Z,48.50
2018-06-17T14:19:10.093Z,47.70
2018-06-17T14:21:38.550Z,47.70
2018-06-17T14:24:07.282Z,48.50
2018-06-17T14:26:35.766Z,47.60
2018-06-17T14:29:06.623Z,46.80
2018-06-17T14:31:35.107Z,46.80
2018-06-17T14:34:03.648Z,47.30
2018-06-17T14:36:32.138Z,47.90
2018-06-17T14:39:00.663Z,47.90
2018-06-17T14:44:02.767Z,46.60
2018-06-17T14:46:36.577Z,47.30
2018-06-17T14:49:10.531Z,46.30
2018-06-17T14:51:44.403Z,45.10
2018-06-17T14:54:12.916Z,46.70
2018-06-17T14:56:41.428Z,45.70
2018-06-17T14:59:09.943Z,47.50
2018-06-17T15:01:38.463Z,46.10
2018-06-17T15:04:06.945Z,44.60
2018-06-17T15:06:36.622Z,43.80
2018-06-17T15:09:10.231Z,44.70
2018-06-17T15:11:38.804Z,46.40
2018-06-17T15:14:07.336Z,46.00
2018-06-17T15:16:35.890Z,46.20
2018-06-17T15:19:04.373Z,45.20
2018-06-17T15:21:33.063Z,45.70
2018-06-17T15:24:01.527Z,46.00
2018-06-17T15:26:30.043Z,45.90
2018-06-17T15:28:58.574Z,46.80
2018-06-17T15:31:32.313Z,46.50
2018-06-17T15:34:06.065Z,47.40
2018-06-17T15:36:39.829Z,48.30
2018-06-17T15:39:13.796Z,49.90
2018-06-17T15:41:42.359Z,50.60
2018-06-17T15:44:10.932Z,49.90
2018-06-17T15:46:39.392Z,49.40
2018-06-17T15:49:07.870Z,50.00
2018-06-17T15:51:36.434Z,49.50
2018-06-17T15:54:04.990Z,49.50
2018-06-17T15:56:33.526Z,49.80
2018-06-17T15:59:02.098Z,49.70
2018-06-17T16:01:30.636Z,50.10
2018-06-17T16:06:27.345Z,49.50
2018-06-17T16:08:55.854Z,49.10
2018-06-17T16:11:24.479Z,49.50
2018-06-17T16:13:58.367Z,49.70
2018-06-17T16:16:32.201Z,50.00
2018-06-17T16:19:06.060Z,50.30
2018-06-17T16:21:34.658Z,50.30
2018-06-17T16:24:03.190Z,49.20
2018-06-17T16:26:31.700Z,49.50
2018-06-17T16:29:00.169Z,48.60
2018-06-17T16:31:29.338Z,49.70
2018-06-17T16:33:57.834Z,50.70
2018-06-17T16:36:26.331Z,50.90
2018-06-17T16:38:54.867Z,50.10
2018-06-17T16:41:23.348Z,51.20
2018-06-17T16:43:51.902Z,50.30
2018-06-17T16:46:20.395Z,50.40
2018-06-17T16:48:48.932Z,50.10
2018-06-17T16:51:22.722Z,51.20
2018-06-17T16:53:56.516Z,52.40
2018-06-17T16:56:30.426Z,50.90
2018-06-17T16:59:04.088Z,51.00
2018-06-17T17:01:32.573Z,52.80
2018-06-17T17:04:01.085Z,54.90
2018-06-17T17:06:29.560Z,53.90
2018-06-17T17:08:58.126Z,54.20
2018-06-17T17:11:26.614Z,52.50
2018-06-17T17:13:55.117Z,53.70
2018-06-17T17:16:23.638Z,53.80
2018-06-17T17:18:52.162Z,53.70
2018-06-17T17:21:20.694Z,53.70
2018-06-17T17:23:49.307Z,52.90
2018-06-17T17:26:17.846Z,53.60
2018-06-17T17:28:47.181Z,53.10
2018-06-17T17:31:15.719Z,55.10
2018-06-17T17:33:49.548Z,53.20
2018-06-17T17:36:23.385Z,53.50
2018-06-17T17:38:57.028Z,53.20
2018-06-17T17:41:25.557Z,53.80
2018-06-17T17:43:54.060Z,53.60
2018-06-17T17:46:27.969Z,53.90
2018-06-17T17:48:56.448Z,53.90
2018-06-17T17:51:24.964Z,54.20
2018-06-17T17:53:53.504Z,54.10
2018-06-17T17:56:21.981Z,54.60
2018-06-17T17:58:50.487Z,55.70
2018-06-17T18:01:19.131Z,55.80
2018-06-17T18:03:49.577Z,57.70
2018-06-17T18:06:18.143Z,55.60
2018-06-17T18:08:46.650Z,56.30
2018-06-17T18:11:15.245Z,56.40
2018-06-17T18:13:43.716Z,56.50
2018-06-17T18:16:12.386Z,55.90
2018-06-17T18:18:41.175Z,57.30
2018-06-17T18:21:09.747Z,56.50
2018-06-17T18:23:38.387Z,56.10
2018-06-17T18:26:12.159Z,56.10
2018-06-17T18:28:45.947Z,56.60
2018-06-17T18:31:14.518Z,57.80
2018-06-17T18:33:48.431Z,59.00
2018-06-17T18:36:17.384Z,59.50
2018-06-17T18:38:47.121Z,60.40
2018-06-17T18:41:16.256Z,59.50
2018-06-17T18:43:44.755Z,59.00
2018-06-17T18:46:14.248Z,59.60
2018-06-17T18:48:42.792Z,59.80
2018-06-17T18:51:11.288Z,59.60
2018-06-17T18:53:39.807Z,59.60
2018-06-17T18:56:08.362Z,60.00
2018-06-17T18:58:36.983Z,59.70
2018-06-17T19:01:05.540Z,59.60
2018-06-17T19:03:34.059Z,58.40
2018-06-17T19:06:02.545Z,59.10
2018-06-17T19:08:36.431Z,60.00
2018-06-17T19:11:10.249Z,60.10
2018-06-17T19:13:44.021Z,58.70
2018-06-17T19:16:18.135Z,60.90
2018-06-17T19:18:46.723Z,59.60
2018-06-17T19:21:15.203Z,59.80
2018-06-17T19:23:43.715Z,60.80
2018-06-17T19:26:12.316Z,59.70
2018-06-17T19:28:40.840Z,60.60
2018-06-17T19:31:09.340Z,60.40
2018-06-17T19:33:37.863Z,60.60
2018-06-17T19:36:06.406Z,61.50
2018-06-17T19:38:35.000Z,61.60
2018-06-17T19:41:04.580Z,62.20
2018-06-17T19:43:33.108Z,61.10
2018-06-17T19:46:01.619Z,61.70
2018-06-17T19:48:30.167Z,62.20
2018-06-17T19:51:04.055Z,63.50
2018-06-17T19:53:39.610Z,62.80
2018-06-17T19:56:13.499Z,63.50
2018-06-17T19:58:47.278Z,62.60
2018-06-17T20:01:15.847Z,62.30
2018-06-17T20:03:44.337Z,62.40
2018-06-17T20:06:12.957Z,62.70
2018-06-17T20:08:41.380Z,62.40
2018-06-17T20:11:09.918Z,62.90
2018-06-17T20:13:38.403Z,62.50
2018-06-17T20:16:06.983Z,62.50
2018-06-17T20:18:35.732Z,63.60
2018-06-17T20:21:04.290Z,62.90
2018-06-17T20:23:34.835Z,62.80
2018-06-17T20:26:03.323Z,62.70
2018-06-17T20:28:31.859Z,61.40
2018-06-17T20:31:05.164Z,60.30
2018-06-17T20:33:39.023Z,63.00
2018-06-17T20:36:12.772Z,62.30
2018-06-17T20:38:46.566Z,61.10
2018-06-17T20:41:20.419Z,61.20
2018-06-17T20:43:50.583Z,62.70
2018-06-17T20:46:19.098Z,62.20
2018-06-17T20:48:48.363Z,62.20
2018-06-17T20:51:17.183Z,63.10
2018-06-17T20:53:45.699Z,60.70
2018-06-17T20:56:14.183Z,61.40
2018-06-17T20:58:42.694Z,61.30
2018-06-17T21:01:12.923Z,61.40
2018-06-17T21:03:41.443Z,62.00
2018-06-17T21:06:09.935Z,61.30
2018-06-17T21:08:38.459Z,62.20
2018-06-17T21:11:06.943Z,60.50
2018-06-17T21:13:35.427Z,62.50
2018-06-17T21:16:03.978Z,63.00
2018-06-17T21:18:38.286Z,61.80
2018-06-17T21:21:12.198Z,58.90
2018-06-17T21:23:45.907Z,58.40
2018-06-17T21:26:19.766Z,58.00
2018-06-17T21:28:48.227Z,59.20
2018-06-17T21:31:16.734Z,58.00
2018-06-17T21:33:45.195Z,58.00
2018-06-17T21:36:13.720Z,58.80
2018-06-17T21:41:10.487Z,58.80
2018-06-17T21:43:39.018Z,58.60
2018-06-17T21:46:07.595Z,59.10
2018-06-17T21:48:36.085Z,59.90
2018-06-17T21:51:04.596Z,60.80
2018-06-17T21:56:01.747Z,61.00
2018-06-17T21:58:35.443Z,61.80
2018-06-17T22:01:04.024Z,61.60
2018-06-17T22:03:32.995Z,61.50
2018-06-17T22:06:01.491Z,61.80
2018-06-17T22:08:35.427Z,62.00
2018-06-17T22:11:11.497Z,61.90
2018-06-17T22:13:45.271Z,62.50
2018-06-17T22:16:19.045Z,62.60
2018-06-17T22:18:47.551Z,63.40
2018-06-17T22:21:16.050Z,64.40
2018-06-17T22:23:44.546Z,64.40
2018-06-17T22:26:13.046Z,64.90
2018-06-17T22:28:41.546Z,65.00
2018-06-17T22:31:10.286Z,65.00
2018-06-17T22:33:38.774Z,64.40
2018-06-17T22:36:07.283Z,64.40
2018-06-17T22:38:35.765Z,65.20
2018-06-17T22:41:05.275Z,65.10
2018-06-17T22:43:33.772Z,65.00
2018-06-17T22:46:02.313Z,64.70
2018-06-17T22:48:30.782Z,64.70
2018-06-17T22:50:59.270Z,65.20
2018-06-17T22:53:39.346Z,65.50
2018-06-17T22:56:12.076Z,65.20
2018-06-17T22:58:45.807Z,65.30
2018-06-17T23:03:25.382Z,65.40
2018-06-17T23:08:32.876Z,66.70
2018-06-17T23:11:01.362Z,66.40
2018-06-17T23:13:29.885Z,66.50
2018-06-17T23:15:58.408Z,66.10
2018-06-17T23:18:26.905Z,66.40
2018-06-17T23:20:55.725Z,66.20
2018-06-17T23:23:24.236Z,65.70
2018-06-17T23:25:52.758Z,66.30
2018-06-17T23:28:21.263Z,66.20
2018-06-17T23:30:49.736Z,66.40
2018-06-17T23:33:18.274Z,66.40
2018-06-17T23:35:46.743Z,66.90
2018-06-17T23:38:15.933Z,66.80
2018-06-17T23:40:44.426Z,67.30
2018-06-17T23:43:12.986Z,67.30
2018-06-17T23:45:46.886Z,67.30
2018-06-17T23:48:21.526Z,67.40
2018-06-17T23:50:55.596Z,68.30
2018-06-17T23:53:29.242Z,68.00
2018-06-17T23:56:03.101Z,67.70
2018-06-17T23:58:31.680Z,68.30
